Archer, Nebraska
Current Conditions -  °F | °C
As of 5:53 AM on Friday 28 Nov 2014 (Local Time) from KGRI Reporting Station
Clear Clear  
Wind Chill: -8°   Ceiling: Unl
Heat Index: -4°   Visibility: 10mi
Dew Point: -7°   Wind: 7mph
Humidity: 78%   Direction: 220°SW
Pressure: 29.86"   Gusts: NA
Location:  41.17°N, 98.14°W
Report Text: KGRI 281153Z AUTO 22006KT 10SM CLR M04/M07 A2986 RMK AO2 SLP137 T10391072 11022 21050 56028 $
Loading
Personal Weather Stations






























Interactive Weather Map New forecast layout! Learn more

10-Day Weather Forecast

Advertisements
Track Severe Weather on mobile